Central, Alaska
Current Conditions -  °F | °C
As of 4:16 PM on Friday 19 Dec 2014 (Local Time) from PFYU Reporting Station
Clear Clear  
Wind Chill: -11°   Ceiling: Unl
Heat Index: -11°   Visibility: 10mi
Dew Point: -17°   Wind: 0mph
Humidity: 77%   Direction: NA
Pressure: 29.49"   Gusts: NA
Location:  65.57°N, 144.81°W
Report Text: PFYU 200116Z 00000KT 10SM CLR M24/M27 A2949 RMK AO1
Loading
Personal Weather Stations






























Interactive Weather Map New forecast layout! Learn more

10-Day Weather Forecast

Advertisements
Track Severe Weather on mobile